Main page
METAR-TAF:

METAR-TAF

Airports :

Cambridge Airport

Cambridge, England

latitude: 52-12N, longitude: 000-11E, elevation: 15 m

Current weather observation

The report was made 29 minutes ago, at 16:20 UTC
Wind 1 kt from variable directions
Temperature 13°C
Humidity 82%
Pressure 1010 hPa
Visibility 10 km or more
Few clouds at a height of 4000 ft

METAR: EGSC 231620Z VRB01KT 9999 FEW040 13/10 Q1010

Time: 17:49 (16:49 UTC)

Forecast

The report was made 2 hours and 51 minutes ago, at 13:58 UTC
Forecast valid from 23 at 15 UTC to 23 at 19 UTC
Wind 3 kt from variable directions
Visibility 10 km or more
Scattered clouds at a height of 3500 ft
Temporary
from 23 at 15 UTC to 23 at 19 UTC
Visibility: 8000 m
Broken clouds at a height of 1000 ft
light rain

TAF: EGSC 231358Z 2315/2319 VRB03KT 9999 SCT035 TEMPO 2315/2319 8000 -RA BKN010

Weather observations and forecasts of more than 4000 airports (METAR and TAF reports).

The available stations are represented by yellow and red dots on the map.

Hover mouse over dot to see the name of the station.

Then click to see weather observations and forecasts.

To change the map : click on the green buttons with a black cross to zoom in, on the green button with a dash to zoom out, or on the green arrows for adjacent maps.


METAR-TAF: